Time;durP1;ratioP1;P1;durP2;ratioP2;P2;SDS_P1;SDS_P2;PMS_P1;PMS_P2;Temp;Humidity;BMP_temperature;BMP_pressure;BME280_temperature;BME280_humidity;BME280_pressure;Samples;Min_cycle;Max_cycle;Signal;HPM_P1;HPM_P2
2023/02/04 00:01:35;;;;;;;10.25;4.95;;;;;;;1.35;68.68;99452.41;6187771;23;20104;-80
2023/02/04 00:04:01;;;;;;;10.18;5.30;;;;;;;1.09;68.77;99412.50;6139683;23;20047;-80
2023/02/04 00:06:27;;;;;;;10.32;5.55;;;;;;;1.11;69.11;99421.94;6171975;23;20024;-81
2023/02/04 00:08:53;;;;;;;10.93;5.90;;;;;;;1.29;69.42;99454.84;6149005;23;20017;-79
2023/02/04 00:11:19;;;;;;;12.07;5.30;;;;;;;1.36;68.36;99455.84;6172525;23;20048;-79
2023/02/04 00:13:46;;;;;;;10.90;5.43;;;;;;;1.17;68.77;99431.47;6150386;23;20068;-81
2023/02/04 00:16:12;;;;;;;11.35;5.63;;;;;;;1.00;68.47;99438.75;6127202;23;20021;-79
2023/02/04 00:18:38;;;;;;;8.25;5.18;;;;;;;1.17;69.59;99463.13;6201528;23;20024;-79
2023/02/04 00:21:04;;;;;;;8.23;5.03;;;;;;;0.92;69.12;99409.53;6143859;23;20021;-79
2023/02/04 00:23:31;;;;;;;8.05;5.03;;;;;;;1.15;69.13;99443.38;6169109;23;20021;-79
2023/02/04 00:25:57;;;;;;;8.32;5.13;;;;;;;1.32;69.46;99459.16;6173194;23;20017;-80
2023/02/04 00:28:23;;;;;;;11.35;5.50;;;;;;;1.24;69.32;99443.63;6170195;23;20056;-79
2023/02/04 00:30:49;;;;;;;9.35;5.53;;;;;;;1.39;69.24;99467.84;6149281;23;20048;-80
2023/02/04 00:33:16;;;;;;;10.27;5.78;;;;;;;1.38;69.20;99469.56;6122839;23;20041;-79
2023/02/04 00:35:42;;;;;;;10.40;5.55;;;;;;;1.41;69.85;99472.22;6166387;23;20017;-80
2023/02/04 00:38:08;;;;;;;10.18;5.32;;;;;;;0.47;68.99;99329.94;6166393;23;20335;-80
2023/02/04 00:40:34;;;;;;;12.15;5.78;;;;;;;1.29;69.11;99472.78;6167103;23;20044;-81
2023/02/04 00:43:00;;;;;;;13.00;6.25;;;;;;;1.03;69.40;99426.03;6140776;23;20020;-78
2023/02/04 00:45:26;;;;;;;13.93;6.57;;;;;;;1.23;68.94;99479.44;6191572;23;20023;-80
2023/02/04 00:47:52;;;;;;;13.05;5.90;;;;;;;1.07;69.05;99445.78;6165071;23;20093;-79
2023/02/04 00:50:18;;;;;;;10.70;5.65;;;;;;;1.07;69.22;99448.34;6191652;23;20025;-80
2023/02/04 00:52:44;;;;;;;11.38;5.30;;;;;;;1.36;69.07;99489.19;6140726;23;20013;-79
2023/02/04 00:55:11;;;;;;;8.68;5.22;;;;;;;1.30;68.73;99483.91;6183680;23;20000;-80
2023/02/04 00:57:37;;;;;;;10.95;5.60;;;;;;;1.17;69.34;99459.66;6212559;23;20025;-79
2023/02/04 01:00:05;;;;;;;10.23;5.53;;;;;;;1.31;69.04;99490.75;6187818;23;20033;-80
2023/02/04 01:02:31;;;;;;;9.80;5.53;;;;;;;0.95;68.64;99450.63;6212368;23;20009;-79
2023/02/04 01:04:57;;;;;;;11.20;5.75;;;;;;;1.24;69.31;99500.00;6185545;23;20059;-79
2023/02/04 01:07:23;;;;;;;10.77;5.78;;;;;;;1.25;68.54;99495.72;6161192;23;20012;-79
2023/02/04 01:09:49;;;;;;;11.93;7.07;;;;;;;1.08;68.71;99470.56;6179584;23;19997;-80
2023/02/04 01:12:15;;;;;;;11.38;6.65;;;;;;;1.02;68.71;99463.59;6137998;23;20009;-79
2023/02/04 01:14:41;;;;;;;12.52;6.93;;;;;;;1.19;69.02;99494.78;6170225;23;20080;-78
2023/02/04 01:17:07;;;;;;;10.82;6.32;;;;;;;1.24;68.88;99511.94;6164138;23;20016;-79
2023/02/04 01:19:33;;;;;;;11.65;6.00;;;;;;;1.18;69.06;99505.88;6167434;23;20023;-79
2023/02/04 01:21:59;;;;;;;13.00;6.30;;;;;;;0.96;68.58;99462.59;6146633;23;20017;-78
2023/02/04 01:24:26;;;;;;;13.05;6.35;;;;;;;1.01;68.50;99484.06;6140426;23;20020;-79
2023/02/04 01:27:10;;;;;;;13.05;6.13;;;;;;;1.13;68.99;99514.25;6186600;23;20017;-79
2023/02/04 01:29:36;;;;;;;10.65;5.70;;;;;;;1.13;69.05;99509.13;6158855;23;20067;-79
2023/02/04 01:32:02;;;;;;;11.48;6.28;;;;;;;0.91;68.83;99490.66;6110717;23;20151;-77
2023/02/04 01:34:30;;;;;;;12.30;6.50;;;;;;;0.83;68.66;99487.03;6158796;23;20017;-80
2023/02/04 01:36:56;;;;;;;13.38;6.82;;;;;;;0.96;68.21;99493.34;6135752;23;20075;-79
2023/02/04 01:39:22;;;;;;;11.57;5.90;;;;;;;1.02;68.73;99511.41;6161384;23;20017;-79
2023/02/04 01:41:48;;;;;;;11.75;5.80;;;;;;;0.85;68.75;99483.69;6162621;23;20028;-81
2023/02/04 01:44:15;;;;;;;12.00;5.95;;;;;;;1.12;68.34;99515.97;6140785;23;20017;-79
2023/02/04 01:46:41;;;;;;;8.70;5.10;;;;;;;1.02;68.81;99491.78;6136563;23;20017;-79
2023/02/04 01:49:09;;;;;;;8.52;5.75;;;;;;;1.05;69.02;99481.63;6135988;23;20028;-80
2023/02/04 01:51:36;;;;;;;11.52;5.40;;;;;;;1.24;68.98;99505.13;6160174;23;20067;-78
2023/02/04 01:54:04;;;;;;;10.75;6.22;;;;;;;1.15;68.79;99510.03;6158703;23;20017;-80
2023/02/04 01:56:31;;;;;;;11.35;5.60;;;;;;;1.17;68.84;99516.94;6186023;23;20017;-79
2023/02/04 01:58:57;;;;;;;9.82;5.40;;;;;;;1.13;68.68;99497.19;6184532;23;20040;-79
2023/02/04 02:01:42;;;;;;;11.70;5.78;;;;;;;1.34;68.41;99524.16;6109593;23;20039;-80
2023/02/04 02:04:12;;;;;;;10.25;4.93;;;;;;;1.44;68.59;99520.97;6159493;23;20020;-79
2023/02/04 02:06:45;;;;;;;10.93;5.30;;;;;;;1.52;68.45;99513.50;6159152;23;20344;-80
2023/02/04 02:09:12;;;;;;;8.27;5.30;;;;;;;1.51;68.38;99501.50;6159005;23;20091;-79
2023/02/04 02:11:38;;;;;;;10.82;6.38;;;;;;;1.68;67.67;99548.03;6185172;23;20017;-78
2023/02/04 02:14:04;;;;;;;8.80;5.20;;;;;;;1.44;67.81;99526.09;6159590;23;20396;-80
2023/02/04 02:16:50;;;;;;;10.23;5.50;;;;;;;1.46;68.45;99526.16;6142481;23;20048;-79
2023/02/04 02:19:26;;;;;;;10.93;5.80;;;;;;;1.59;68.14;99529.88;6158895;23;20049;-80
2023/02/04 02:22:03;;;;;;;9.48;5.30;;;;;;;1.65;67.80;99524.91;6135706;23;20017;-81
2023/02/04 02:24:32;;;;;;;10.48;5.07;;;;;;;1.84;68.49;99544.13;6157557;23;20023;-80
2023/02/04 02:27:03;;;;;;;8.95;5.25;;;;;;;1.85;68.35;99529.59;6185969;23;20040;-80
2023/02/04 02:29:30;;;;;;;8.32;4.97;;;;;;;1.77;68.06;99511.44;6160995;23;20119;-79
2023/02/04 02:31:57;;;;;;;8.70;5.10;;;;;;;1.77;67.98;99509.78;6133782;23;20017;-80
2023/02/04 02:34:26;;;;;;;8.60;5.30;;;;;;;2.03;67.69;99554.78;6185111;23;20528;-80
2023/02/04 02:36:53;;;;;;;10.40;5.38;;;;;;;2.00;67.90;99568.44;6185339;23;20540;-79
2023/02/04 02:39:20;;;;;;;8.65;4.72;;;;;;;1.82;67.42;99529.53;6185330;23;20017;-80
2023/02/04 02:41:46;;;;;;;7.50;5.07;;;;;;;1.97;67.50;99550.41;6133678;23;20079;-80
2023/02/04 02:44:15;;;;;;;10.35;5.35;;;;;;;2.01;67.72;99549.63;6158622;23;20017;-79
2023/02/04 02:46:41;;;;;;;9.65;5.10;;;;;;;2.17;67.53;99567.94;6133530;23;20021;-78
2023/02/04 02:49:14;;;;;;;8.57;5.20;;;;;;;2.23;67.59;99565.50;6133749;23;20016;-80
2023/02/04 02:51:41;;;;;;;11.80;5.60;;;;;;;2.28;67.29;99570.72;6109207;23;20036;-79
2023/02/04 02:54:23;;;;;;;8.57;4.90;;;;;;;2.13;66.69;99549.03;6110289;23;20068;-80
2023/02/04 02:56:51;;;;;;;9.15;5.32;;;;;;;2.26;67.43;99586.13;6158363;23;20040;-80
2023/02/04 02:59:19;;;;;;;9.48;5.63;;;;;;;2.07;67.10;99562.63;6135559;23;20017;-81
2023/02/04 03:01:49;;;;;;;11.43;5.65;;;;;;;1.91;66.83;99532.28;6158040;23;20013;-81
2023/02/04 03:04:17;;;;;;;11.07;5.68;;;;;;;2.22;66.88;99592.84;6160988;23;20092;-79
2023/02/04 03:06:44;;;;;;;10.30;5.10;;;;;;;2.17;67.16;99573.06;6160065;23;20062;-80
2023/02/04 03:09:11;;;;;;;8.55;5.15;;;;;;;2.24;66.48;99590.34;6163080;23;20064;-80
2023/02/04 03:11:37;;;;;;;9.30;5.03;;;;;;;2.16;66.70;99582.47;6188509;23;20338;-79
2023/02/04 03:14:04;;;;;;;9.82;5.45;;;;;;;2.21;66.72;99582.56;6161944;23;20016;-78
2023/02/04 03:16:33;;;;;;;9.05;5.22;;;;;;;2.32;66.58;99593.06;6137552;23;20524;-80
2023/02/04 03:19:00;;;;;;;10.10;5.20;;;;;;;2.34;66.59;99599.09;6138335;23;20048;-81
2023/02/04 03:21:27;;;;;;;8.93;5.28;;;;;;;2.27;66.41;99585.28;6161635;23;20043;-80
2023/02/04 03:23:57;;;;;;;9.13;5.07;;;;;;;2.42;66.90;99600.16;6112698;23;20076;-80
2023/02/04 03:26:24;;;;;;;9.25;5.53;;;;;;;2.26;66.26;99579.25;6138439;23;20489;-81
2023/02/04 03:28:50;;;;;;;9.30;5.35;;;;;;;2.41;66.77;99611.25;6188078;23;20021;-80
2023/02/04 03:31:24;;;;;;;10.45;5.63;;;;;;;2.21;66.30;99564.59;6160835;23;20108;-81
2023/02/04 03:33:50;;;;;;;9.18;5.60;;;;;;;2.24;66.73;99559.53;6160264;23;20332;-79
2023/02/04 03:36:16;;;;;;;11.68;6.10;;;;;;;2.32;65.17;99608.47;6136479;23;20517;-80
2023/02/04 03:38:42;;;;;;;9.77;5.72;;;;;;;2.22;66.45;99615.97;6186609;23;20062;-79
2023/02/04 03:41:08;;;;;;;9.65;5.50;;;;;;;2.23;66.61;99599.72;6162385;23;20020;-80
2023/02/04 03:43:34;;;;;;;9.00;5.43;;;;;;;2.31;66.41;99612.75;6111622;23;20091;-80
2023/02/04 03:46:00;;;;;;;8.25;5.20;;;;;;;2.29;66.55;99583.63;6161472;23;20415;-80
2023/02/04 03:48:27;;;;;;;9.93;5.50;;;;;;;2.53;65.99;99616.63;6161262;23;20016;-80
2023/02/04 03:50:53;;;;;;;10.07;5.07;;;;;;;2.38;65.85;99590.66;6145727;23;20115;-79
2023/02/04 03:53:20;;;;;;;10.10;5.10;;;;;;;2.39;65.97;99595.78;6161404;23;20008;-80
2023/02/04 03:55:47;;;;;;;12.48;5.65;;;;;;;2.44;66.16;99603.59;6201237;23;20013;-78
2023/02/04 03:58:15;;;;;;;11.05;5.63;;;;;;;2.31;65.56;99581.94;6194647;23;20023;-79
2023/02/04 04:00:41;;;;;;;6.97;4.22;;;;;;;2.13;65.69;99587.53;6185617;23;20028;-80
2023/02/04 04:03:08;;;;;;;11.73;5.40;;;;;;;2.15;66.35;99583.31;6131695;23;20517;-80
2023/02/04 04:05:34;;;;;;;8.57;4.68;;;;;;;2.52;66.01;99626.91;6150418;23;20032;-78
2023/02/04 04:08:00;;;;;;;9.25;5.38;;;;;;;2.63;66.21;99630.53;6138206;23;20358;-79
2023/02/04 04:10:28;;;;;;;10.35;5.15;;;;;;;2.60;66.04;99622.75;6160519;23;20017;-78
2023/02/04 04:12:54;;;;;;;12.25;5.90;;;;;;;2.59;65.51;99638.16;6137027;23;20043;-79
2023/02/04 04:15:20;;;;;;;7.85;4.97;;;;;;;2.29;66.04;99593.00;6147545;23;20484;-79
2023/02/04 04:17:46;;;;;;;9.80;5.10;;;;;;;2.47;66.19;99618.22;6160981;23;20019;-79
2023/02/04 04:20:12;;;;;;;9.13;4.70;;;;;;;2.50;65.96;99614.00;6186286;23;20024;-80
2023/02/04 04:22:40;;;;;;;8.32;4.80;;;;;;;2.65;65.26;99640.88;6135836;23;20021;-81
2023/02/04 04:25:07;;;;;;;8.38;4.90;;;;;;;2.64;66.02;99639.13;6134840;23;20032;-81
2023/02/04 04:27:33;;;;;;;11.60;5.68;;;;;;;2.64;66.05;99639.13;6159195;23;20021;-79
2023/02/04 04:30:00;;;;;;;9.93;5.60;;;;;;;2.78;65.44;99642.84;6189294;23;20021;-80
2023/02/04 04:32:26;;;;;;;7.68;4.65;;;;;;;2.47;65.39;99602.81;6159954;23;20478;-81
2023/02/04 04:34:52;;;;;;;11.35;5.82;;;;;;;2.59;65.45;99631.31;6160447;23;20489;-80
2023/02/04 04:37:18;;;;;;;9.13;5.50;;;;;;;2.61;64.79;99654.47;6185098;23;20470;-80
2023/02/04 04:39:44;;;;;;;9.80;5.57;;;;;;;2.53;65.41;99642.31;6160310;23;20024;-80
2023/02/04 04:42:10;;;;;;;9.82;5.60;;;;;;;2.40;64.75;99622.38;6136006;23;20027;-80
2023/02/04 04:44:36;;;;;;;11.63;6.05;;;;;;;2.28;65.40;99592.16;6161534;23;20047;-80
2023/02/04 04:47:02;;;;;;;13.85;6.40;;;;;;;2.18;64.56;99605.59;6135324;23;20017;-81
2023/02/04 04:49:28;;;;;;;12.70;6.55;;;;;;;2.05;64.09;99641.28;6187366;23;20048;-81
2023/02/04 04:51:54;;;;;;;11.82;6.18;;;;;;;1.44;64.86;99564.56;6159595;23;20021;-82
2023/02/04 04:54:20;;;;;;;13.55;7.25;;;;;;;2.08;66.11;99666.16;6160279;23;20100;-80
2023/02/04 04:56:46;;;;;;;14.82;7.07;;;;;;;1.96;65.42;99625.66;6162862;23;20021;-80
2023/02/04 04:59:14;;;;;;;11.68;6.65;;;;;;;2.05;64.37;99656.69;6163650;23;20067;-80
2023/02/04 05:01:40;;;;;;;13.25;7.20;;;;;;;2.03;65.71;99663.47;6189122;23;20016;-82
2023/02/04 05:04:06;;;;;;;12.98;6.47;;;;;;;2.12;66.22;99652.56;6162809;23;20100;-79
2023/02/04 05:06:32;;;;;;;12.73;6.65;;;;;;;2.06;65.81;99621.59;6147954;23;20031;-80
2023/02/04 05:08:58;;;;;;;12.18;6.85;;;;;;;2.30;65.77;99652.13;6147479;23;20039;-81
2023/02/04 05:11:24;;;;;;;12.40;6.55;;;;;;;2.33;65.82;99644.44;6160822;23;20537;-81
2023/02/04 05:13:50;;;;;;;14.98;7.10;;;;;;;2.40;65.30;99676.31;6110628;23;20013;-79
2023/02/04 05:16:17;;;;;;;14.45;7.28;;;;;;;2.19;65.80;99648.41;6188257;23;20021;-81
2023/02/04 05:18:43;;;;;;;12.55;7.05;;;;;;;2.42;66.00;99677.22;6202520;23;20021;-80
2023/02/04 05:21:09;;;;;;;16.27;7.65;;;;;;;2.45;65.67;99682.38;6161945;23;20028;-80
2023/02/04 05:23:35;;;;;;;12.20;6.60;;;;;;;2.33;65.76;99656.44;6173328;23;20496;-79
2023/02/04 05:26:01;;;;;;;11.27;6.28;;;;;;;2.49;66.05;99675.63;6160455;23;20017;-81
2023/02/04 05:28:27;;;;;;;13.45;6.63;;;;;;;2.47;65.73;99672.16;6161135;23;20073;-80
2023/02/04 05:30:53;;;;;;;11.02;6.07;;;;;;;2.38;65.64;99665.97;6189453;23;20024;-80
2023/02/04 05:33:20;;;;;;;12.25;7.05;;;;;;;2.15;65.49;99616.69;6186638;23;20097;-81
2023/02/04 05:35:49;;;;;;;16.50;7.43;;;;;;;1.54;65.04;99539.16;6111905;23;20024;-80
2023/02/04 05:38:16;;;;;;;15.60;6.95;;;;;;;2.52;65.52;99691.97;6110978;23;20062;-81
2023/02/04 05:40:45;;;;;;;12.18;7.03;;;;;;;1.38;64.92;99509.72;6185835;23;20095;-80
2023/02/04 05:43:48;;;;;;;;;;;;;;;;;;;;;
2023/02/04 05:46:57;;;;;;;;;;;;;;;;;;;;;
2023/02/04 05:49:42;;;;;;;15.80;7.88;;;;;;;2.58;65.24;99719.50;5992114;23;20426;-82
2023/02/04 05:52:09;;;;;;;13.57;7.50;;;;;;;2.01;65.46;99643.72;5989155;23;20023;-80
2023/02/04 05:54:36;;;;;;;12.98;7.10;;;;;;;2.54;65.55;99727.97;5967348;23;20029;-81
2023/02/04 05:57:22;;;;;;;13.73;7.22;;;;;;;1.77;65.34;99614.09;6006778;23;21112;-80
2023/02/04 05:59:51;;;;;;;16.30;7.88;;;;;;;2.68;65.35;99739.44;6131044;23;20018;-80
2023/02/04 06:02:20;;;;;;;15.80;7.03;;;;;;;2.52;65.35;99724.50;6107771;23;20021;-81
2023/02/04 06:04:54;;;;;;;13.60;7.18;;;;;;;2.69;65.62;99751.44;6158157;23;20080;-81
2023/02/04 06:07:53;;;;;;;15.85;7.93;;;;;;;1.57;64.79;99593.09;6120227;23;20045;-80
2023/02/04 06:10:36;;;;;;;14.88;7.90;;;;;;;1.87;65.43;99628.88;6134058;23;20099;-80
2023/02/04 06:13:12;;;;;;;19.38;8.40;;;;;;;1.42;65.17;99568.81;6110835;23;20019;-81
2023/02/04 06:16:12;;;;;;;15.98;7.70;;;;;;;1.66;65.46;99580.47;6133436;23;20048;-80
2023/02/04 06:18:39;;;;;;;13.23;7.50;;;;;;;2.02;65.58;99638.66;6108952;23;20021;-80
2023/02/04 06:22:13;;;;;;;14.38;7.35;;;;;;;2.91;65.03;99763.88;6134453;23;20055;-82
2023/02/04 06:24:55;;;;;;;16.85;8.10;;;;;;;1.69;65.30;99564.31;6112535;23;20044;-82
2023/02/04 06:27:27;;;;;;;17.13;8.07;;;;;;;2.18;65.13;99618.44;6119055;23;20044;-81
2023/02/04 06:30:18;;;;;;;;;;;;;;;;;;;;;
2023/02/04 06:33:17;;;;;;;18.10;7.57;;;;;;;2.55;65.45;99652.63;6120904;23;20014;-79
2023/02/04 06:35:49;;;;;;;17.40;8.65;;;;;;;2.07;65.09;99578.00;6106962;23;20509;-82
2023/02/04 06:38:46;;;;;;;19.77;8.68;;;;;;;3.13;65.02;99750.66;6110597;23;20076;-82
2023/02/04 06:41:13;;;;;;;15.32;8.05;;;;;;;2.19;64.79;99576.53;6109245;23;20021;-82
2023/02/04 06:43:42;;;;;;;18.27;7.90;;;;;;;3.13;65.08;99739.50;6098414;23;20021;-81
2023/02/04 06:47:01;;;;;;;17.48;8.38;;;;;;;2.35;64.67;99593.13;6142541;23;20100;-82
2023/02/04 06:49:51;;;;;;;15.68;8.13;;;;;;;3.72;64.13;99787.84;6156286;23;20027;-81
2023/02/04 06:52:22;;;;;;;16.20;8.52;;;;;;;3.70;64.95;99768.03;6179912;23;20020;-81
2023/02/04 06:54:48;;;;;;;17.50;7.88;;;;;;;3.67;64.18;99753.41;6157315;23;20031;-81
2023/02/04 06:57:49;;;;;;;13.95;7.75;;;;;;;3.90;63.92;99789.84;6175945;23;20020;-79
2023/02/04 07:00:54;;;;;;;14.75;7.90;;;;;;;3.96;63.66;99790.81;6166363;23;20020;-81
2023/02/04 07:03:29;;;;;;;15.98;7.93;;;;;;;4.08;64.21;99793.63;6140214;23;20024;-81
2023/02/04 07:06:04;;;;;;;16.23;8.25;;;;;;;3.84;63.71;99748.56;6166450;23;20280;-82
2023/02/04 07:08:30;;;;;;;17.42;9.02;;;;;;;3.44;63.51;99686.06;6142515;23;20096;-81
2023/02/04 07:11:59;;;;;;;18.95;9.30;;;;;;;4.03;63.04;99790.09;6141956;23;20051;-82
2023/02/04 07:14:30;;;;;;;17.92;9.43;;;;;;;2.91;62.56;99682.50;6143448;23;20020;-80
2023/02/04 07:17:19;;;;;;;18.35;9.77;;;;;;;3.55;62.64;99774.63;6160577;23;20450;-82
2023/02/04 07:19:51;;;;;;;27.33;13.80;;;;;;;3.50;63.42;99739.38;6111682;23;20020;-82
2023/02/04 07:22:52;;;;;;;26.75;13.20;;;;;;;4.03;63.62;99790.09;6159885;23;20017;-82
2023/02/04 07:25:19;;;;;;;26.70;13.20;;;;;;;3.86;63.46;99823.25;6162512;23;20020;-81
2023/02/04 07:27:56;;;;;;;28.70;14.38;;;;;;;3.38;63.66;99715.13;6134899;23;20485;-80
2023/02/04 07:34:12;;;;;;;29.60;15.45;;;;;;;3.81;63.40;99717.63;6111833;23;20024;-80
2023/02/04 07:36:41;;;;;;;29.65;16.15;;;;;;;4.29;63.04;99807.72;6159866;23;20017;-82
2023/02/04 07:39:19;;;;;;;29.02;15.27;;;;;;;4.40;62.98;99810.47;6160069;23;20340;-81
2023/02/04 07:42:20;;;;;;;27.08;15.35;;;;;;;4.51;63.27;99827.84;6188497;23;20017;-81
2023/02/04 07:45:03;;;;;;;32.67;16.52;;;;;;;3.34;62.32;99643.88;6147508;23;20024;-81
2023/02/04 07:47:30;;;;;;;33.10;16.02;;;;;;;4.56;62.95;99837.31;6154541;23;20107;-79
2023/02/04 07:50:39;;;;;;;29.70;16.08;;;;;;;4.41;62.43;99792.44;6176523;23;20016;-81
2023/02/04 07:53:35;;;;;;;34.78;15.23;;;;;;;4.39;62.20;99770.94;6082831;23;20421;-82
2023/02/04 07:56:04;;;;;;;31.05;15.30;;;;;;;4.52;63.07;99772.84;6183188;23;20029;-81
2023/02/04 08:02:13;;;;;;;;;;;;;;;5.11;62.63;99845.91;6111271;23;20020;-80
2023/02/04 08:04:54;;;;;;;31.92;15.60;;;;;;;4.41;61.56;99763.25;6208170;23;19916;-82
2023/02/04 08:07:20;;;;;;;32.30;17.20;;;;;;;4.25;61.59;99721.75;6211228;23;20043;-81
2023/02/04 08:09:51;;;;;;;35.63;17.10;;;;;;;5.07;62.09;99853.59;6157431;23;20450;-80
2023/02/04 08:12:17;;;;;;;36.78;17.30;;;;;;;5.18;61.67;99856.31;6149836;23;20021;-81
2023/02/04 08:15:00;;;;;;;30.05;15.80;;;;;;;4.07;61.06;99661.41;6184031;23;20013;-81
2023/02/04 08:17:37;;;;;;;31.98;15.25;;;;;;;5.38;61.94;99860.03;6182761;23;20084;-80
2023/02/04 08:20:13;;;;;;;34.38;16.00;;;;;;;4.33;61.10;99683.22;6140799;23;20012;-80
2023/02/04 08:22:45;;;;;;;29.30;16.30;;;;;;;5.23;61.12;99823.69;6166189;23;20028;-79
2023/02/04 08:25:17;;;;;;;32.67;17.42;;;;;;;4.24;60.80;99683.09;6139723;23;20076;-80
2023/02/04 08:27:47;;;;;;;43.50;20.30;;;;;;;4.93;61.14;99796.66;6143283;23;20458;-81
2023/02/04 08:30:15;;;;;;;30.52;14.35;;;;;;;5.26;60.06;99860.75;6173352;23;20021;-83
2023/02/04 08:32:41;;;;;;;30.88;16.08;;;;;;;5.04;60.74;99849.25;6150508;23;20119;-81
2023/02/04 08:35:07;;;;;;;30.05;16.05;;;;;;;4.60;60.76;99766.94;6192889;23;20450;-80
2023/02/04 08:37:33;;;;;;;31.10;16.08;;;;;;;4.72;60.31;99799.78;6166051;23;20021;-82
2023/02/04 08:40:01;;;;;;;40.28;19.73;;;;;;;4.94;60.53;99849.97;6194379;23;20087;-79
2023/02/04 08:42:51;;;;;;;37.80;20.08;;;;;;;3.84;58.35;99712.53;6191174;23;20195;-81
2023/02/04 08:45:29;;;;;;;34.92;20.40;;;;;;;3.89;60.15;99785.53;6149622;23;20040;-80
2023/02/04 08:47:58;;;;;;;34.42;18.90;;;;;;;3.60;61.19;99695.81;6149293;23;20017;-80
2023/02/04 08:50:25;;;;;;;36.53;17.88;;;;;;;3.55;61.08;99673.41;6197096;23;20027;-81
2023/02/04 08:53:23;;;;;;;29.60;15.52;;;;;;;4.96;60.65;99868.91;6162515;23;20039;-80
2023/02/04 08:59:18;;;;;;;21.85;12.52;;;;;;;4.46;60.15;99806.25;6161479;23;20051;-79
2023/02/04 09:01:48;;;;;;;22.38;12.30;;;;;;;3.73;60.52;99691.75;6162969;23;20028;-80
2023/02/04 09:04:16;;;;;;;;;;;;;;;4.80;58.54;99872.97;6138493;23;20044;-81
2023/02/04 09:06:53;;;;;;;26.05;13.52;;;;;;;4.56;59.83;99861.41;6122677;23;20008;-80
2023/02/04 09:09:22;;;;;;;29.33;14.45;;;;;;;3.23;58.50;99704.56;6188638;23;20100;-80
2023/02/04 09:11:49;;;;;;;31.38;15.43;;;;;;;4.05;59.77;99825.31;6161088;23;20119;-78
2023/02/04 09:14:16;;;;;;;25.33;14.38;;;;;;;4.18;60.10;99836.72;6162979;23;20029;-81
2023/02/04 09:16:42;;;;;;;33.38;14.93;;;;;;;4.54;60.59;99873.41;6188895;23;20086;-81
2023/02/04 09:19:15;;;;;;;27.98;14.30;;;;;;;4.29;60.40;99805.97;6144056;23;20021;-82
2023/02/04 09:21:44;;;;;;;22.17;12.65;;;;;;;3.69;60.31;99676.22;6136050;23;20028;-80
2023/02/04 09:24:16;;;;;;;26.58;13.65;;;;;;;4.68;59.48;99827.22;6161603;23;20023;-80
2023/02/04 09:26:43;;;;;;;26.70;13.60;;;;;;;5.11;59.88;99892.34;6138130;23;20374;-81
2023/02/04 09:29:13;;;;;;;30.08;14.77;;;;;;;4.76;59.15;99827.34;6137905;23;20025;-81
2023/02/04 09:31:39;;;;;;;23.35;11.93;;;;;;;4.78;57.83;99872.91;6190058;23;20021;-81
2023/02/04 09:34:07;;;;;;;22.98;11.68;;;;;;;4.79;59.56;99882.38;6165969;23;20013;-78
2023/02/04 09:36:38;;;;;;;21.95;11.93;;;;;;;4.55;59.56;99851.94;6143119;23;20020;-80
2023/02/04 09:39:05;;;;;;;23.35;11.40;;;;;;;4.68;58.33;99871.91;6117327;23;20021;-81
2023/02/04 09:42:00;;;;;;;22.50;10.85;;;;;;;4.86;59.93;99903.13;6201890;23;20017;-80
2023/02/04 09:44:44;;;;;;;24.15;12.40;;;;;;;4.42;59.36;99777.81;6133442;23;20024;-81
2023/02/04 09:47:39;;;;;;;29.60;15.23;;;;;;;5.11;57.85;99907.81;6136581;23;20020;-81
2023/02/04 09:50:35;;;;;;;31.85;14.68;;;;;;;4.47;58.89;99786.50;6107526;23;20096;-81
2023/02/04 09:53:27;;;;;;;28.60;14.48;;;;;;;4.87;58.93;99809.44;6117214;23;20384;-81
2023/02/04 09:55:56;;;;;;;38.30;18.98;;;;;;;5.59;59.29;99910.22;6107730;23;20049;-81
2023/02/04 09:58:32;;;;;;;30.98;16.23;;;;;;;5.34;58.89;99842.78;6108822;23;20021;-79
2023/02/04 10:01:33;;;;;;;34.28;16.48;;;;;;;5.82;59.12;99915.66;6107879;23;20021;-81
2023/02/04 10:04:00;;;;;;;35.10;16.10;;;;;;;5.89;57.71;99872.69;6075559;23;20502;-80
2023/02/04 10:07:28;;;;;;;31.30;15.48;;;;;;;4.92;56.24;99722.72;6084263;23;20044;-80
2023/02/04 10:10:20;;;;;;;;;;;;;;;;;;;;;
2023/02/04 10:14:14;;;;;;;37.15;18.35;;;;;;;5.06;57.85;99736.63;6157496;23;20040;-82
2023/02/04 10:16:56;;;;;;;30.95;15.55;;;;;;;5.51;58.14;99781.06;6108040;23;20017;-83
2023/02/04 10:19:23;;;;;;;;;;;;;;;6.61;58.43;99926.88;6160132;23;20017;-79
2023/02/04 10:21:52;;;;;;;34.45;15.77;;;;;;;6.62;56.75;99931.19;6132629;23;20001;-80
2023/02/04 10:24:29;;;;;;;35.50;15.55;;;;;;;5.87;56.74;99852.00;6107709;23;20088;-80
2023/02/04 10:35:14;;;;;;;32.72;16.10;;;;;;;5.27;55.73;99820.31;6043102;23;20019;-83
2023/02/04 10:37:41;;;;;;;37.67;13.95;;;;;;;5.33;55.84;99882.34;6051931;23;20034;-79
2023/02/04 10:40:32;;;;;;;31.45;14.73;;;;;;;5.48;55.65;99953.06;6028990;23;20104;-78
2023/02/04 10:43:16;;;;;;;34.70;15.10;;;;;;;5.08;57.72;99875.94;6053962;23;20019;-80
2023/02/04 10:46:06;;;;;;;33.80;16.42;;;;;;;4.60;57.52;99736.91;6035101;23;20022;-80
2023/02/04 10:48:40;;;;;;;35.83;16.20;;;;;;;5.85;57.58;99969.06;6094009;23;20007;-81
2023/02/04 10:51:16;;;;;;;35.45;15.65;;;;;;;5.45;57.14;99907.44;6102231;23;20025;-80
2023/02/04 10:56:27;;;;;;;32.78;13.98;;;;;;;4.70;56.58;99822.97;6055362;23;20035;-80
2023/02/04 10:58:59;;;;;;;28.15;12.93;;;;;;;5.62;56.87;99989.41;6075529;23;20018;-82
2023/02/04 11:01:28;;;;;;;30.30;13.57;;;;;;;5.31;57.30;99894.34;6072109;23;20401;-80
2023/02/04 11:04:07;;;;;;;27.23;13.18;;;;;;;5.49;56.23;99939.31;6092973;23;20064;-80
2023/02/04 11:06:33;;;;;;;32.00;15.32;;;;;;;4.88;55.74;99911.75;6135779;23;20061;-82
2023/02/04 11:09:02;;;;;;;32.15;14.73;;;;;;;4.94;57.25;99917.03;6178214;23;20002;-79
2023/02/04 11:11:31;;;;;;;29.88;14.85;;;;;;;4.74;57.83;99894.34;6176263;23;20053;-81
2023/02/04 11:14:02;;;;;;;31.27;14.13;;;;;;;4.68;56.23;99894.25;6175230;23;20013;-80
2023/02/04 11:16:34;;;;;;;30.30;13.60;;;;;;;5.12;57.42;99962.84;6172681;23;20081;-80
2023/02/04 11:19:21;;;;;;;29.35;13.82;;;;;;;4.35;56.34;99836.13;6146230;23;20021;-81
2023/02/04 11:21:56;;;;;;;26.73;13.57;;;;;;;3.86;57.57;99788.06;6163397;23;20013;-81
2023/02/04 11:24:59;;;;;;;29.27;14.77;;;;;;;3.98;56.61;99831.19;6138409;23;20005;-82
2023/02/04 11:27:42;;;;;;;33.47;14.57;;;;;;;4.13;58.15;99871.81;6084944;23;20022;-79
2023/02/04 11:30:21;;;;;;;33.20;14.25;;;;;;;4.09;57.88;99864.00;6062616;23;20019;-81
2023/02/04 11:33:39;;;;;;;25.77;13.00;;;;;;;4.07;57.53;99871.72;6074133;23;20413;-82
2023/02/04 11:36:16;;;;;;;25.98;12.00;;;;;;;3.24;57.35;99804.88;6117604;23;20017;-81
2023/02/04 11:39:16;;;;;;;25.13;12.50;;;;;;;4.55;59.09;100008.28;6148689;23;20025;-81
2023/02/04 11:42:00;;;;;;;30.40;14.07;;;;;;;4.81;58.95;99986.41;6174512;23;20001;-80
2023/02/04 11:44:32;;;;;;;28.35;13.95;;;;;;;4.15;57.24;99903.63;6143345;23;20013;-80
2023/02/04 11:47:09;;;;;;;28.95;14.30;;;;;;;3.90;57.82;99926.31;6172826;23;20092;-79
2023/02/04 11:49:35;;;;;;;;;;;;;;;4.20;58.45;99999.00;6149171;23;20013;-82
2023/02/04 11:52:07;;;;;;;29.33;13.73;;;;;;;4.02;59.03;99920.53;6173176;23;19913;-80
2023/02/04 11:54:36;;;;;;;30.63;14.65;;;;;;;4.35;59.15;99968.41;6165776;23;20091;-81
2023/02/04 11:57:06;;;;;;;33.25;15.70;;;;;;;4.69;58.52;100006.84;6168545;23;20051;-81
2023/02/04 11:59:49;;;;;;;31.42;15.38;;;;;;;3.90;58.53;99892.84;6115362;23;20017;-79
2023/02/04 12:02:28;;;;;;;28.73;14.52;;;;;;;3.60;59.54;99805.59;6139060;23;20479;-81
2023/02/04 12:05:16;;;;;;;30.35;14.48;;;;;;;4.83;59.52;100005.38;6120504;23;20038;-83
2023/02/04 12:07:48;;;;;;;27.20;13.60;;;;;;;4.56;58.39;99966.19;6148002;23;20033;-82
2023/02/04 12:10:33;;;;;;;28.48;14.48;;;;;;;4.36;58.60;99966.69;6122660;23;20479;-80
2023/02/04 12:13:21;;;;;;;27.27;13.30;;;;;;;3.90;59.37;99843.06;6133918;23;20073;-79
2023/02/04 12:16:05;;;;;;;26.58;13.10;;;;;;;4.25;58.48;99888.34;6111129;23;20021;-81
2023/02/04 12:18:35;;;;;;;24.65;12.90;;;;;;;4.10;58.83;99855.44;6143293;23;20029;-79
2023/02/04 12:21:05;;;;;;;27.08;12.88;;;;;;;5.00;58.55;100001.34;6165144;23;20028;-81
2023/02/04 12:23:31;;;;;;;22.58;11.90;;;;;;;5.06;57.86;100015.22;6115731;23;20026;-78
2023/02/04 12:26:16;;;;;;;24.38;12.02;;;;;;;5.20;58.24;100036.09;6105264;23;20029;-80
2023/02/04 12:28:43;;;;;;;24.77;12.70;;;;;;;4.67;58.21;99987.91;6127313;23;20476;-81